sensor_id;sensor_type;location;lat;lon;timestamp;P1;durP1;ratioP1;P2;durP2;ratioP2
20229;SDS011;12195;55.790;37.572;2022-09-09T00:00:53;2.45;;;1.30;;
20229;SDS011;12195;55.790;37.572;2022-09-09T00:03:31;2.12;;;1.30;;
20229;SDS011;12195;55.790;37.572;2022-09-09T00:08:57;15.53;;;2.05;;
20229;SDS011;12195;55.790;37.572;2022-09-09T00:11:51;1.57;;;1.10;;
20229;SDS011;12195;55.790;37.572;2022-09-09T00:17:31;1.70;;;1.00;;
20229;SDS011;12195;55.790;37.572;2022-09-09T00:28:54;1.10;;;1.00;;
20229;SDS011;12195;55.790;37.572;2022-09-09T00:31:28;2.95;;;1.50;;
20229;SDS011;12195;55.790;37.572;2022-09-09T00:34:15;3.05;;;1.40;;
20229;SDS011;12195;55.790;37.572;2022-09-09T00:36:48;3.25;;;1.60;;
20229;SDS011;12195;55.790;37.572;2022-09-09T00:42:14;2.90;;;1.27;;
20229;SDS011;12195;55.790;37.572;2022-09-09T00:44:51;2.55;;;1.50;;
20229;SDS011;12195;55.790;37.572;2022-09-09T00:50:22;2.27;;;1.72;;
20229;SDS011;12195;55.790;37.572;2022-09-09T00:53:01;2.47;;;1.70;;
20229;SDS011;12195;55.790;37.572;2022-09-09T00:55:48;3.00;;;1.60;;
20229;SDS011;12195;55.790;37.572;2022-09-09T00:58:35;2.87;;;1.75;;
20229;SDS011;12195;55.790;37.572;2022-09-09T01:01:11;4.08;;;1.80;;
20229;SDS011;12195;55.790;37.572;2022-09-09T01:03:53;3.27;;;1.62;;
20229;SDS011;12195;55.790;37.572;2022-09-09T01:06:31;3.10;;;1.40;;
20229;SDS011;12195;55.790;37.572;2022-09-09T01:17:17;3.45;;;1.20;;
20229;SDS011;12195;55.790;37.572;2022-09-09T01:20:03;3.25;;;1.57;;
20229;SDS011;12195;55.790;37.572;2022-09-09T01:22:51;2.95;;;1.40;;
20229;SDS011;12195;55.790;37.572;2022-09-09T01:25:29;4.10;;;1.20;;
20229;SDS011;12195;55.790;37.572;2022-09-09T01:28:21;5.53;;;1.70;;
20229;SDS011;12195;55.790;37.572;2022-09-09T01:30:57;2.47;;;1.50;;
20229;SDS011;12195;55.790;37.572;2022-09-09T01:33:31;4.55;;;1.57;;
20229;SDS011;12195;55.790;37.572;2022-09-09T01:36:08;2.02;;;1.40;;
20229;SDS011;12195;55.790;37.572;2022-09-09T01:38:48;2.75;;;1.30;;
20229;SDS011;12195;55.790;37.572;2022-09-09T01:41:20;2.40;;;1.20;;
20229;SDS011;12195;55.790;37.572;2022-09-09T01:43:54;5.92;;;1.65;;
20229;SDS011;12195;55.790;37.572;2022-09-09T01:46:29;3.58;;;1.50;;
20229;SDS011;12195;55.790;37.572;2022-09-09T01:49:02;2.62;;;1.57;;
20229;SDS011;12195;55.790;37.572;2022-09-09T01:51:37;3.58;;;1.70;;
20229;SDS011;12195;55.790;37.572;2022-09-09T01:54:13;4.47;;;1.72;;
20229;SDS011;12195;55.790;37.572;2022-09-09T01:59:48;3.10;;;1.50;;
20229;SDS011;12195;55.790;37.572;2022-09-09T02:07:59;3.35;;;1.22;;
20229;SDS011;12195;55.790;37.572;2022-09-09T02:11:22;7.10;;;3.45;;
20229;SDS011;12195;55.790;37.572;2022-09-09T02:13:16;4.60;;;1.80;;
20229;SDS011;12195;55.790;37.572;2022-09-09T02:16:00;2.17;;;1.67;;
20229;SDS011;12195;55.790;37.572;2022-09-09T02:19:08;2.10;;;1.52;;
20229;SDS011;12195;55.790;37.572;2022-09-09T02:21:44;6.83;;;1.98;;
20229;SDS011;12195;55.790;37.572;2022-09-09T02:24:17;6.70;;;2.20;;
20229;SDS011;12195;55.790;37.572;2022-09-09T02:26:52;3.55;;;2.10;;
20229;SDS011;12195;55.790;37.572;2022-09-09T02:29:34;5.22;;;2.55;;
20229;SDS011;12195;55.790;37.572;2022-09-09T02:32:09;8.03;;;3.20;;
20229;SDS011;12195;55.790;37.572;2022-09-09T02:34:47;7.67;;;3.10;;
20229;SDS011;12195;55.790;37.572;2022-09-09T02:37:21;6.50;;;3.30;;
20229;SDS011;12195;55.790;37.572;2022-09-09T02:39:57;4.95;;;2.92;;
20229;SDS011;12195;55.790;37.572;2022-09-09T02:42:30;6.53;;;3.45;;
20229;SDS011;12195;55.790;37.572;2022-09-09T02:45:03;7.30;;;3.10;;
20229;SDS011;12195;55.790;37.572;2022-09-09T02:50:28;6.85;;;2.87;;
20229;SDS011;12195;55.790;37.572;2022-09-09T02:53:16;2.95;;;2.47;;
20229;SDS011;12195;55.790;37.572;2022-09-09T02:55:57;7.53;;;3.10;;
20229;SDS011;12195;55.790;37.572;2022-09-09T02:58:37;5.97;;;2.92;;
20229;SDS011;12195;55.790;37.572;2022-09-09T03:01:10;7.12;;;2.75;;
20229;SDS011;12195;55.790;37.572;2022-09-09T03:03:44;6.12;;;2.65;;
20229;SDS011;12195;55.790;37.572;2022-09-09T03:06:17;3.97;;;2.40;;
20229;SDS011;12195;55.790;37.572;2022-09-09T03:08:51;8.97;;;2.93;;
20229;SDS011;12195;55.790;37.572;2022-09-09T03:11:25;7.10;;;2.87;;
20229;SDS011;12195;55.790;37.572;2022-09-09T03:13:59;5.53;;;2.58;;
20229;SDS011;12195;55.790;37.572;2022-09-09T03:16:32;5.53;;;2.72;;
20229;SDS011;12195;55.790;37.572;2022-09-09T03:19:04;5.90;;;2.92;;
20229;SDS011;12195;55.790;37.572;2022-09-09T03:21:36;7.75;;;2.80;;
20229;SDS011;12195;55.790;37.572;2022-09-09T03:24:09;8.00;;;2.90;;
20229;SDS011;12195;55.790;37.572;2022-09-09T03:26:41;7.20;;;3.17;;
20229;SDS011;12195;55.790;37.572;2022-09-09T03:29:16;4.83;;;3.40;;
20229;SDS011;12195;55.790;37.572;2022-09-09T03:31:48;5.03;;;2.70;;
20229;SDS011;12195;55.790;37.572;2022-09-09T03:34:21;6.40;;;2.85;;
20229;SDS011;12195;55.790;37.572;2022-09-09T03:36:54;6.75;;;2.37;;
20229;SDS011;12195;55.790;37.572;2022-09-09T03:39:27;10.85;;;3.65;;
20229;SDS011;12195;55.790;37.572;2022-09-09T03:42:00;5.62;;;2.92;;
20229;SDS011;12195;55.790;37.572;2022-09-09T03:44:35;5.00;;;3.00;;
20229;SDS011;12195;55.790;37.572;2022-09-09T03:47:07;9.28;;;3.55;;
20229;SDS011;12195;55.790;37.572;2022-09-09T03:49:40;6.45;;;3.33;;
20229;SDS011;12195;55.790;37.572;2022-09-09T03:52:12;8.03;;;3.60;;
20229;SDS011;12195;55.790;37.572;2022-09-09T03:54:44;7.10;;;3.50;;
20229;SDS011;12195;55.790;37.572;2022-09-09T03:57:17;4.87;;;3.05;;
20229;SDS011;12195;55.790;37.572;2022-09-09T03:59:50;4.12;;;2.42;;
20229;SDS011;12195;55.790;37.572;2022-09-09T04:02:22;6.22;;;3.10;;
20229;SDS011;12195;55.790;37.572;2022-09-09T04:04:54;6.40;;;2.72;;
20229;SDS011;12195;55.790;37.572;2022-09-09T04:07:27;6.65;;;2.95;;
20229;SDS011;12195;55.790;37.572;2022-09-09T04:09:59;9.30;;;3.40;;
20229;SDS011;12195;55.790;37.572;2022-09-09T04:12:32;6.42;;;2.65;;
20229;SDS011;12195;55.790;37.572;2022-09-09T04:15:04;7.22;;;2.85;;
20229;SDS011;12195;55.790;37.572;2022-09-09T04:17:37;7.12;;;2.80;;
20229;SDS011;12195;55.790;37.572;2022-09-09T04:20:10;4.72;;;2.25;;
20229;SDS011;12195;55.790;37.572;2022-09-09T04:22:42;7.97;;;2.77;;
20229;SDS011;12195;55.790;37.572;2022-09-09T04:25:14;7.90;;;2.20;;
20229;SDS011;12195;55.790;37.572;2022-09-09T04:27:46;4.92;;;1.42;;
20229;SDS011;12195;55.790;37.572;2022-09-09T04:30:20;5.90;;;1.80;;
20229;SDS011;12195;55.790;37.572;2022-09-09T04:32:52;7.75;;;2.08;;
20229;SDS011;12195;55.790;37.572;2022-09-09T04:35:24;4.03;;;1.85;;
20229;SDS011;12195;55.790;37.572;2022-09-09T04:37:57;5.75;;;2.25;;
20229;SDS011;12195;55.790;37.572;2022-09-09T04:40:30;3.83;;;1.90;;
20229;SDS011;12195;55.790;37.572;2022-09-09T04:43:03;4.15;;;1.72;;
20229;SDS011;12195;55.790;37.572;2022-09-09T04:45:37;4.10;;;1.67;;
20229;SDS011;12195;55.790;37.572;2022-09-09T04:48:10;8.28;;;1.92;;
20229;SDS011;12195;55.790;37.572;2022-09-09T04:50:44;6.08;;;1.82;;
20229;SDS011;12195;55.790;37.572;2022-09-09T04:53:17;2.35;;;1.20;;
20229;SDS011;12195;55.790;37.572;2022-09-09T04:55:49;3.22;;;1.37;;
20229;SDS011;12195;55.790;37.572;2022-09-09T04:58:23;4.67;;;1.42;;
20229;SDS011;12195;55.790;37.572;2022-09-09T05:01:06;2.98;;;1.42;;
20229;SDS011;12195;55.790;37.572;2022-09-09T05:03:37;9.08;;;2.42;;
20229;SDS011;12195;55.790;37.572;2022-09-09T05:06:15;5.45;;;1.30;;
20229;SDS011;12195;55.790;37.572;2022-09-09T05:08:50;3.37;;;1.57;;
20229;SDS011;12195;55.790;37.572;2022-09-09T05:11:26;2.30;;;1.40;;
20229;SDS011;12195;55.790;37.572;2022-09-09T05:14:01;5.40;;;1.92;;
20229;SDS011;12195;55.790;37.572;2022-09-09T05:16:34;3.55;;;1.52;;
20229;SDS011;12195;55.790;37.572;2022-09-09T05:19:06;4.08;;;1.75;;
20229;SDS011;12195;55.790;37.572;2022-09-09T05:21:43;1.52;;;1.02;;
20229;SDS011;12195;55.790;37.572;2022-09-09T05:24:17;2.37;;;1.20;;
20229;SDS011;12195;55.790;37.572;2022-09-09T05:26:51;4.15;;;1.00;;
20229;SDS011;12195;55.790;37.572;2022-09-09T05:29:23;7.65;;;1.20;;
20229;SDS011;12195;55.790;37.572;2022-09-09T05:31:56;3.77;;;1.27;;
20229;SDS011;12195;55.790;37.572;2022-09-09T05:34:29;6.37;;;1.50;;
20229;SDS011;12195;55.790;37.572;2022-09-09T05:37:02;3.27;;;1.45;;
20229;SDS011;12195;55.790;37.572;2022-09-09T05:39:34;4.25;;;1.60;;
20229;SDS011;12195;55.790;37.572;2022-09-09T05:42:09;5.15;;;1.30;;
20229;SDS011;12195;55.790;37.572;2022-09-09T05:44:42;7.08;;;1.70;;
20229;SDS011;12195;55.790;37.572;2022-09-09T05:47:15;2.12;;;1.00;;
20229;SDS011;12195;55.790;37.572;2022-09-09T05:49:47;4.47;;;1.45;;
20229;SDS011;12195;55.790;37.572;2022-09-09T05:52:19;4.08;;;1.20;;
20229;SDS011;12195;55.790;37.572;2022-09-09T05:54:52;3.85;;;1.05;;
20229;SDS011;12195;55.790;37.572;2022-09-09T05:57:27;2.72;;;1.30;;
20229;SDS011;12195;55.790;37.572;2022-09-09T06:00:00;4.35;;;1.37;;
20229;SDS011;12195;55.790;37.572;2022-09-09T06:02:34;2.77;;;1.25;;
20229;SDS011;12195;55.790;37.572;2022-09-09T06:05:08;1.20;;;0.80;;
20229;SDS011;12195;55.790;37.572;2022-09-09T06:07:42;4.12;;;1.32;;
20229;SDS011;12195;55.790;37.572;2022-09-09T06:10:14;1.95;;;1.00;;
20229;SDS011;12195;55.790;37.572;2022-09-09T06:12:47;2.83;;;1.05;;
20229;SDS011;12195;55.790;37.572;2022-09-09T06:15:20;4.80;;;1.12;;
20229;SDS011;12195;55.790;37.572;2022-09-09T06:17:55;1.75;;;1.10;;
20229;SDS011;12195;55.790;37.572;2022-09-09T06:20:27;3.05;;;1.32;;
20229;SDS011;12195;55.790;37.572;2022-09-09T06:23:01;3.02;;;0.93;;
20229;SDS011;12195;55.790;37.572;2022-09-09T06:25:35;2.30;;;1.20;;
20229;SDS011;12195;55.790;37.572;2022-09-09T06:28:09;4.00;;;1.02;;
20229;SDS011;12195;55.790;37.572;2022-09-09T06:30:42;7.42;;;2.33;;
20229;SDS011;12195;55.790;37.572;2022-09-09T06:33:14;4.40;;;1.37;;
20229;SDS011;12195;55.790;37.572;2022-09-09T06:35:53;2.72;;;1.10;;
20229;SDS011;12195;55.790;37.572;2022-09-09T06:38:27;1.70;;;0.72;;
20229;SDS011;12195;55.790;37.572;2022-09-09T06:41:00;0.93;;;0.65;;
20229;SDS011;12195;55.790;37.572;2022-09-09T06:43:32;0.95;;;0.50;;
20229;SDS011;12195;55.790;37.572;2022-09-09T06:46:08;1.17;;;0.72;;
20229;SDS011;12195;55.790;37.572;2022-09-09T06:48:42;0.80;;;0.60;;
20229;SDS011;12195;55.790;37.572;2022-09-09T06:51:22;1.47;;;0.70;;
20229;SDS011;12195;55.790;37.572;2022-09-09T06:53:55;1.45;;;0.80;;
20229;SDS011;12195;55.790;37.572;2022-09-09T06:56:30;1.72;;;0.78;;
20229;SDS011;12195;55.790;37.572;2022-09-09T06:59:06;1.50;;;0.85;;
20229;SDS011;12195;55.790;37.572;2022-09-09T07:01:39;3.12;;;1.20;;
20229;SDS011;12195;55.790;37.572;2022-09-09T07:04:23;1.62;;;0.88;;
20229;SDS011;12195;55.790;37.572;2022-09-09T07:06:56;2.85;;;1.40;;
20229;SDS011;12195;55.790;37.572;2022-09-09T07:09:29;0.68;;;0.60;;
20229;SDS011;12195;55.790;37.572;2022-09-09T07:12:01;2.30;;;0.98;;
20229;SDS011;12195;55.790;37.572;2022-09-09T07:14:37;2.25;;;0.80;;
20229;SDS011;12195;55.790;37.572;2022-09-09T07:17:09;1.22;;;0.57;;
20229;SDS011;12195;55.790;37.572;2022-09-09T07:19:42;6.22;;;1.40;;
20229;SDS011;12195;55.790;37.572;2022-09-09T07:22:16;2.17;;;1.32;;
20229;SDS011;12195;55.790;37.572;2022-09-09T07:24:50;3.15;;;0.82;;
20229;SDS011;12195;55.790;37.572;2022-09-09T07:27:22;10.20;;;1.57;;
20229;SDS011;12195;55.790;37.572;2022-09-09T07:29:54;7.12;;;1.10;;
20229;SDS011;12195;55.790;37.572;2022-09-09T07:32:29;0.70;;;0.60;;
20229;SDS011;12195;55.790;37.572;2022-09-09T07:35:02;3.12;;;0.60;;
20229;SDS011;12195;55.790;37.572;2022-09-09T07:37:36;6.20;;;0.78;;
20229;SDS011;12195;55.790;37.572;2022-09-09T07:40:09;5.97;;;1.00;;
20229;SDS011;12195;55.790;37.572;2022-09-09T07:42:41;3.65;;;1.47;;
20229;SDS011;12195;55.790;37.572;2022-09-09T07:45:13;1.10;;;0.72;;
20229;SDS011;12195;55.790;37.572;2022-09-09T07:47:46;2.15;;;0.70;;
20229;SDS011;12195;55.790;37.572;2022-09-09T07:50:19;5.62;;;1.50;;
20229;SDS011;12195;55.790;37.572;2022-09-09T07:52:52;2.70;;;1.00;;
20229;SDS011;12195;55.790;37.572;2022-09-09T07:55:27;1.20;;;0.50;;
20229;SDS011;12195;55.790;37.572;2022-09-09T07:58:00;5.42;;;1.00;;
20229;SDS011;12195;55.790;37.572;2022-09-09T08:00:33;5.70;;;1.50;;
20229;SDS011;12195;55.790;37.572;2022-09-09T08:03:06;3.70;;;0.80;;
20229;SDS011;12195;55.790;37.572;2022-09-09T08:05:39;2.62;;;0.78;;
20229;SDS011;12195;55.790;37.572;2022-09-09T08:08:13;4.45;;;0.75;;
20229;SDS011;12195;55.790;37.572;2022-09-09T08:10:46;8.78;;;1.15;;
20229;SDS011;12195;55.790;37.572;2022-09-09T08:13:19;4.30;;;0.75;;
20229;SDS011;12195;55.790;37.572;2022-09-09T08:15:50;1.92;;;0.28;;
20229;SDS011;12195;55.790;37.572;2022-09-09T08:18:26;11.20;;;1.37;;
20229;SDS011;12195;55.790;37.572;2022-09-09T08:21:04;3.77;;;0.73;;
20229;SDS011;12195;55.790;37.572;2022-09-09T08:23:42;1.25;;;0.60;;
20229;SDS011;12195;55.790;37.572;2022-09-09T08:26:17;2.25;;;0.60;;
20229;SDS011;12195;55.790;37.572;2022-09-09T08:28:54;1.85;;;0.90;;
20229;SDS011;12195;55.790;37.572;2022-09-09T08:31:29;0.85;;;0.60;;
20229;SDS011;12195;55.790;37.572;2022-09-09T08:34:05;1.02;;;0.55;;
20229;SDS011;12195;55.790;37.572;2022-09-09T08:36:40;2.75;;;0.85;;
20229;SDS011;12195;55.790;37.572;2022-09-09T08:39:14;1.55;;;0.60;;
20229;SDS011;12195;55.790;37.572;2022-09-09T08:44:52;7.00;;;1.30;;
20229;SDS011;12195;55.790;37.572;2022-09-09T08:55:48;4.83;;;0.65;;
20229;SDS011;12195;55.790;37.572;2022-09-09T08:58:35;2.42;;;0.90;;
20229;SDS011;12195;55.790;37.572;2022-09-09T09:10:02;2.70;;;0.82;;
20229;SDS011;12195;55.790;37.572;2022-09-09T09:12:53;2.52;;;0.68;;
20229;SDS011;12195;55.790;37.572;2022-09-09T09:15:28;1.42;;;0.70;;
20229;SDS011;12195;55.790;37.572;2022-09-09T09:18:03;3.40;;;0.93;;
20229;SDS011;12195;55.790;37.572;2022-09-09T09:20:58;1.30;;;0.60;;
20229;SDS011;12195;55.790;37.572;2022-09-09T09:23:31;1.37;;;0.70;;
20229;SDS011;12195;55.790;37.572;2022-09-09T09:26:10;2.17;;;0.98;;
20229;SDS011;12195;55.790;37.572;2022-09-09T09:28:44;1.47;;;0.95;;
20229;SDS011;12195;55.790;37.572;2022-09-09T09:31:18;4.83;;;0.85;;
20229;SDS011;12195;55.790;37.572;2022-09-09T09:33:53;3.22;;;1.75;;
20229;SDS011;12195;55.790;37.572;2022-09-09T09:36:41;1.95;;;0.65;;
20229;SDS011;12195;55.790;37.572;2022-09-09T09:39:28;1.27;;;0.60;;
20229;SDS011;12195;55.790;37.572;2022-09-09T09:41:58;1.30;;;0.72;;
20229;SDS011;12195;55.790;37.572;2022-09-09T09:44:35;2.37;;;0.90;;
20229;SDS011;12195;55.790;37.572;2022-09-09T09:47:13;1.98;;;0.60;;
20229;SDS011;12195;55.790;37.572;2022-09-09T09:49:54;2.08;;;0.75;;
20229;SDS011;12195;55.790;37.572;2022-09-09T09:52:31;2.60;;;1.00;;
20229;SDS011;12195;55.790;37.572;2022-09-09T09:55:11;2.77;;;1.02;;
20229;SDS011;12195;55.790;37.572;2022-09-09T09:57:43;2.87;;;1.15;;
20229;SDS011;12195;55.790;37.572;2022-09-09T10:00:17;2.22;;;0.65;;
20229;SDS011;12195;55.790;37.572;2022-09-09T10:02:59;2.70;;;0.60;;
20229;SDS011;12195;55.790;37.572;2022-09-09T10:05:35;1.75;;;0.85;;
20229;SDS011;12195;55.790;37.572;2022-09-09T10:08:12;0.70;;;0.50;;
20229;SDS011;12195;55.790;37.572;2022-09-09T10:19:29;4.65;;;1.10;;
20229;SDS011;12195;55.790;37.572;2022-09-09T10:22:04;4.08;;;1.20;;
20229;SDS011;12195;55.790;37.572;2022-09-09T10:24:55;2.02;;;1.00;;
20229;SDS011;12195;55.790;37.572;2022-09-09T10:30:47;5.40;;;1.85;;
20229;SDS011;12195;55.790;37.572;2022-09-09T10:33:41;2.42;;;1.10;;
20229;SDS011;12195;55.790;37.572;2022-09-09T10:36:24;7.53;;;1.00;;
20229;SDS011;12195;55.790;37.572;2022-09-09T10:39:04;1.90;;;0.90;;
20229;SDS011;12195;55.790;37.572;2022-09-09T10:42:08;5.97;;;1.02;;
20229;SDS011;12195;55.790;37.572;2022-09-09T10:47:50;3.37;;;1.10;;
20229;SDS011;12195;55.790;37.572;2022-09-09T10:53:29;4.70;;;1.15;;
20229;SDS011;12195;55.790;37.572;2022-09-09T10:56:04;1.65;;;0.62;;
20229;SDS011;12195;55.790;37.572;2022-09-09T10:58:36;1.22;;;0.40;;
20229;SDS011;12195;55.790;37.572;2022-09-09T11:01:12;0.80;;;0.40;;
20229;SDS011;12195;55.790;37.572;2022-09-09T11:03:47;9.30;;;1.10;;
20229;SDS011;12195;55.790;37.572;2022-09-09T11:06:22;1.35;;;0.80;;
20229;SDS011;12195;55.790;37.572;2022-09-09T11:08:58;2.58;;;1.07;;
20229;SDS011;12195;55.790;37.572;2022-09-09T11:11:35;3.85;;;1.07;;
20229;SDS011;12195;55.790;37.572;2022-09-09T11:14:15;3.67;;;1.22;;
20229;SDS011;12195;55.790;37.572;2022-09-09T11:17:15;1.98;;;1.00;;
20229;SDS011;12195;55.790;37.572;2022-09-09T11:19:49;2.35;;;1.50;;
20229;SDS011;12195;55.790;37.572;2022-09-09T11:25:22;3.20;;;1.60;;
20229;SDS011;12195;55.790;37.572;2022-09-09T11:31:04;3.95;;;1.85;;
20229;SDS011;12195;55.790;37.572;2022-09-09T11:41:51;4.25;;;0.80;;
20229;SDS011;12195;55.790;37.572;2022-09-09T11:44:26;2.83;;;0.93;;
20229;SDS011;12195;55.790;37.572;2022-09-09T11:46:59;2.08;;;0.70;;
20229;SDS011;12195;55.790;37.572;2022-09-09T11:52:22;5.90;;;0.90;;
20229;SDS011;12195;55.790;37.572;2022-09-09T11:57:31;4.90;;;1.72;;
20229;SDS011;12195;55.790;37.572;2022-09-09T12:00:06;2.33;;;1.00;;
20229;SDS011;12195;55.790;37.572;2022-09-09T12:02:47;3.37;;;1.40;;
20229;SDS011;12195;55.790;37.572;2022-09-09T12:05:15;5.12;;;2.52;;
20229;SDS011;12195;55.790;37.572;2022-09-09T12:07:58;1.42;;;1.00;;
20229;SDS011;12195;55.790;37.572;2022-09-09T12:10:35;5.20;;;1.37;;
20229;SDS011;12195;55.790;37.572;2022-09-09T12:13:16;2.50;;;0.90;;
20229;SDS011;12195;55.790;37.572;2022-09-09T12:15:54;2.20;;;1.22;;
20229;SDS011;12195;55.790;37.572;2022-09-09T12:18:32;1.10;;;0.80;;
20229;SDS011;12195;55.790;37.572;2022-09-09T12:21:18;3.80;;;1.10;;
20229;SDS011;12195;55.790;37.572;2022-09-09T12:24:11;1.82;;;0.90;;
20229;SDS011;12195;55.790;37.572;2022-09-09T12:26:52;1.42;;;1.00;;
20229;SDS011;12195;55.790;37.572;2022-09-09T12:29:36;1.82;;;0.98;;
20229;SDS011;12195;55.790;37.572;2022-09-09T12:32:10;4.05;;;1.50;;
20229;SDS011;12195;55.790;37.572;2022-09-09T12:34:52;1.77;;;0.90;;
20229;SDS011;12195;55.790;37.572;2022-09-09T12:37:37;3.50;;;0.90;;
20229;SDS011;12195;55.790;37.572;2022-09-09T12:40:21;4.67;;;0.90;;
20229;SDS011;12195;55.790;37.572;2022-09-09T12:42:55;1.82;;;0.95;;
20229;SDS011;12195;55.790;37.572;2022-09-09T12:45:30;4.07;;;0.97;;
20229;SDS011;12195;55.790;37.572;2022-09-09T12:48:06;4.78;;;0.90;;
20229;SDS011;12195;55.790;37.572;2022-09-09T12:50:46;5.85;;;1.05;;
20229;SDS011;12195;55.790;37.572;2022-09-09T12:53:29;3.20;;;1.02;;
20229;SDS011;12195;55.790;37.572;2022-09-09T12:56:09;2.50;;;0.70;;
20229;SDS011;12195;55.790;37.572;2022-09-09T12:58:45;6.65;;;1.70;;
20229;SDS011;12195;55.790;37.572;2022-09-09T13:01:23;1.98;;;0.93;;
20229;SDS011;12195;55.790;37.572;2022-09-09T13:04:16;1.30;;;0.70;;
20229;SDS011;12195;55.790;37.572;2022-09-09T13:06:50;5.08;;;0.90;;
20229;SDS011;12195;55.790;37.572;2022-09-09T13:09:22;2.62;;;0.65;;
20229;SDS011;12195;55.790;37.572;2022-09-09T13:11:55;7.67;;;1.32;;
20229;SDS011;12195;55.790;37.572;2022-09-09T13:14:29;1.25;;;0.65;;
20229;SDS011;12195;55.790;37.572;2022-09-09T13:17:05;2.65;;;0.90;;
20229;SDS011;12195;55.790;37.572;2022-09-09T13:19:40;6.10;;;1.72;;
20229;SDS011;12195;55.790;37.572;2022-09-09T13:22:20;5.85;;;1.35;;
20229;SDS011;12195;55.790;37.572;2022-09-09T13:25:05;3.55;;;0.75;;
20229;SDS011;12195;55.790;37.572;2022-09-09T13:27:51;5.25;;;0.85;;
20229;SDS011;12195;55.790;37.572;2022-09-09T13:30:30;4.65;;;0.90;;
20229;SDS011;12195;55.790;37.572;2022-09-09T13:35:49;2.37;;;0.98;;
20229;SDS011;12195;55.790;37.572;2022-09-09T13:38:33;8.33;;;2.15;;
20229;SDS011;12195;55.790;37.572;2022-09-09T13:41:10;1.47;;;0.70;;
20229;SDS011;12195;55.790;37.572;2022-09-09T13:46:24;3.55;;;1.25;;
20229;SDS011;12195;55.790;37.572;2022-09-09T13:48:58;4.17;;;0.90;;
20229;SDS011;12195;55.790;37.572;2022-09-09T13:51:33;2.95;;;1.20;;
20229;SDS011;12195;55.790;37.572;2022-09-09T13:54:11;5.17;;;1.50;;
20229;SDS011;12195;55.790;37.572;2022-09-09T13:56:45;9.83;;;2.00;;
20229;SDS011;12195;55.790;37.572;2022-09-09T13:59:19;0.72;;;0.60;;
20229;SDS011;12195;55.790;37.572;2022-09-09T14:01:51;5.00;;;1.62;;
20229;SDS011;12195;55.790;37.572;2022-09-09T14:04:24;3.98;;;1.45;;
20229;SDS011;12195;55.790;37.572;2022-09-09T14:06:56;2.05;;;0.93;;
20229;SDS011;12195;55.790;37.572;2022-09-09T14:09:29;3.42;;;1.45;;
20229;SDS011;12195;55.790;37.572;2022-09-09T14:12:01;28.07;;;4.47;;
20229;SDS011;12195;55.790;37.572;2022-09-09T14:14:34;9.35;;;1.50;;
20229;SDS011;12195;55.790;37.572;2022-09-09T14:17:07;4.83;;;2.02;;
20229;SDS011;12195;55.790;37.572;2022-09-09T14:19:40;5.55;;;1.15;;
20229;SDS011;12195;55.790;37.572;2022-09-09T14:22:13;8.88;;;1.37;;
20229;SDS011;12195;55.790;37.572;2022-09-09T14:24:46;7.80;;;1.50;;
20229;SDS011;12195;55.790;37.572;2022-09-09T14:27:19;4.08;;;1.52;;
20229;SDS011;12195;55.790;37.572;2022-09-09T14:29:52;8.05;;;1.92;;
20229;SDS011;12195;55.790;37.572;2022-09-09T14:32:24;2.22;;;1.07;;
20229;SDS011;12195;55.790;37.572;2022-09-09T14:34:57;6.85;;;1.30;;
20229;SDS011;12195;55.790;37.572;2022-09-09T14:37:30;12.10;;;1.60;;
20229;SDS011;12195;55.790;37.572;2022-09-09T14:40:03;4.60;;;1.27;;
20229;SDS011;12195;55.790;37.572;2022-09-09T14:45:09;2.42;;;1.05;;
20229;SDS011;12195;55.790;37.572;2022-09-09T14:47:42;1.42;;;0.68;;
20229;SDS011;12195;55.790;37.572;2022-09-09T14:50:15;3.33;;;1.17;;
20229;SDS011;12195;55.790;37.572;2022-09-09T14:52:47;4.62;;;1.70;;
20229;SDS011;12195;55.790;37.572;2022-09-09T14:55:20;1.42;;;0.93;;
20229;SDS011;12195;55.790;37.572;2022-09-09T14:57:53;2.30;;;0.75;;
20229;SDS011;12195;55.790;37.572;2022-09-09T15:00:25;2.17;;;0.90;;
20229;SDS011;12195;55.790;37.572;2022-09-09T15:02:58;1.52;;;0.75;;
20229;SDS011;12195;55.790;37.572;2022-09-09T15:05:30;1.30;;;0.90;;
20229;SDS011;12195;55.790;37.572;2022-09-09T15:08:03;1.27;;;0.98;;
20229;SDS011;12195;55.790;37.572;2022-09-09T15:10:35;2.58;;;0.75;;
20229;SDS011;12195;55.790;37.572;2022-09-09T15:13:09;1.27;;;0.80;;
20229;SDS011;12195;55.790;37.572;2022-09-09T15:15:42;8.38;;;1.45;;
20229;SDS011;12195;55.790;37.572;2022-09-09T15:18:14;2.05;;;1.00;;
20229;SDS011;12195;55.790;37.572;2022-09-09T15:20:46;3.45;;;1.12;;
20229;SDS011;12195;55.790;37.572;2022-09-09T15:23:19;3.58;;;1.30;;
20229;SDS011;12195;55.790;37.572;2022-09-09T15:25:52;6.55;;;2.08;;
20229;SDS011;12195;55.790;37.572;2022-09-09T15:28:25;3.80;;;1.10;;
20229;SDS011;12195;55.790;37.572;2022-09-09T15:30:58;4.50;;;1.45;;
20229;SDS011;12195;55.790;37.572;2022-09-09T15:33:33;2.50;;;1.30;;
20229;SDS011;12195;55.790;37.572;2022-09-09T15:36:19;1.50;;;1.22;;
20229;SDS011;12195;55.790;37.572;2022-09-09T15:38:57;2.08;;;0.90;;
20229;SDS011;12195;55.790;37.572;2022-09-09T15:41:31;7.80;;;2.27;;
20229;SDS011;12195;55.790;37.572;2022-09-09T15:44:03;10.15;;;1.82;;
20229;SDS011;12195;55.790;37.572;2022-09-09T15:46:37;4.03;;;1.02;;
20229;SDS011;12195;55.790;37.572;2022-09-09T15:49:16;3.02;;;1.12;;
20229;SDS011;12195;55.790;37.572;2022-09-09T15:51:47;3.50;;;1.45;;
20229;SDS011;12195;55.790;37.572;2022-09-09T15:54:28;2.67;;;1.20;;
20229;SDS011;12195;55.790;37.572;2022-09-09T15:57:13;3.22;;;0.80;;
20229;SDS011;12195;55.790;37.572;2022-09-09T15:59:45;4.87;;;1.90;;
20229;SDS011;12195;55.790;37.572;2022-09-09T16:02:18;3.77;;;1.37;;
20229;SDS011;12195;55.790;37.572;2022-09-09T16:04:51;3.30;;;1.12;;
20229;SDS011;12195;55.790;37.572;2022-09-09T16:07:24;2.80;;;1.40;;
20229;SDS011;12195;55.790;37.572;2022-09-09T16:09:56;4.00;;;1.52;;
20229;SDS011;12195;55.790;37.572;2022-09-09T16:12:29;9.65;;;3.12;;
20229;SDS011;12195;55.790;37.572;2022-09-09T16:15:01;5.15;;;2.10;;
20229;SDS011;12195;55.790;37.572;2022-09-09T16:17:34;4.58;;;1.80;;
20229;SDS011;12195;55.790;37.572;2022-09-09T16:20:08;2.08;;;1.55;;
20229;SDS011;12195;55.790;37.572;2022-09-09T16:22:42;4.37;;;2.08;;
20229;SDS011;12195;55.790;37.572;2022-09-09T16:25:14;8.23;;;1.77;;
20229;SDS011;12195;55.790;37.572;2022-09-09T16:27:48;7.53;;;1.90;;
20229;SDS011;12195;55.790;37.572;2022-09-09T16:30:21;3.22;;;1.35;;
20229;SDS011;12195;55.790;37.572;2022-09-09T16:32:55;4.65;;;1.70;;
20229;SDS011;12195;55.790;37.572;2022-09-09T16:35:27;2.27;;;1.50;;
20229;SDS011;12195;55.790;37.572;2022-09-09T16:38:00;4.75;;;1.60;;
20229;SDS011;12195;55.790;37.572;2022-09-09T16:40:37;2.95;;;1.32;;
20229;SDS011;12195;55.790;37.572;2022-09-09T16:43:07;8.55;;;1.98;;
20229;SDS011;12195;55.790;37.572;2022-09-09T16:45:43;7.22;;;2.05;;
20229;SDS011;12195;55.790;37.572;2022-09-09T16:48:16;2.55;;;1.60;;
20229;SDS011;12195;55.790;37.572;2022-09-09T16:50:49;7.15;;;2.37;;
20229;SDS011;12195;55.790;37.572;2022-09-09T16:53:21;5.15;;;1.77;;
20229;SDS011;12195;55.790;37.572;2022-09-09T16:55:53;3.60;;;1.65;;
20229;SDS011;12195;55.790;37.572;2022-09-09T16:58:26;6.22;;;1.90;;
20229;SDS011;12195;55.790;37.572;2022-09-09T17:00:59;5.22;;;1.77;;
20229;SDS011;12195;55.790;37.572;2022-09-09T17:03:35;5.42;;;1.90;;
20229;SDS011;12195;55.790;37.572;2022-09-09T17:06:11;7.92;;;2.20;;
20229;SDS011;12195;55.790;37.572;2022-09-09T17:08:46;8.93;;;2.67;;